Aviation Digital Data Service (ADDS)

Output produced by TAFs form (1129 UTC 19 January 2018)
found at http://www.aviationweather.gov/adds/tafs/
 
RJCB 191100Z 29003KT 250V330 9999 FEW040 M09/M12 Q1016
TAF RJCB 190507Z 1906/2012 33013KT 9999 FEW050 
     BECMG 1912/1914 03003KT 
     BECMG 2000/2003 16005KT 
     BECMG 2006/2009 35006KT